Island Harbour, Canada
Current Conditions -  °F | °C
As of 12:45 AM on Saturday 20 Dec 2014 (Local Time) from CYQX Reporting Station
Light Snow Light Snow  
Wind Chill: 18°   Ceiling: 600
Heat Index: 30°   Visibility: 2.5mi
Dew Point: 28°   Wind: 17mph
Humidity: 93%   Direction: 350°N
Pressure: 29.84"   Gusts: 25mph
Location:  49.6°N, 54.3°W
Report Text: CYQX 200345Z 35015G22KT 2 1/2SM -FZDZ -SN DRSN BKN006 OVC012 M01/M02 A2984 RMK SN2SF5SC1 SLP111
Loading
Personal Weather Stations






























Interactive Weather Map New forecast layout! Learn more

10-Day Weather Forecast

Advertisements
Track Severe Weather on mobile